createdAt,value
2023-03-08T00:02:56.701Z,98355.53
2023-03-08T00:07:01.069Z,98357.25
2023-03-08T00:11:06.813Z,98351.22
2023-03-08T00:15:10.282Z,98356.47
2023-03-08T00:19:13.357Z,98355.59
2023-03-08T00:23:17.717Z,98356.50
2023-03-08T00:27:20.772Z,98366.94
2023-03-08T00:31:23.854Z,98372.19
2023-03-08T00:35:29.863Z,98375.63
2023-03-08T00:39:34.816Z,98386.09
2023-03-08T00:43:38.170Z,98382.63
2023-03-08T00:47:41.300Z,98387.88
2023-03-08T00:51:44.413Z,98387.88
2023-03-08T00:55:53.686Z,98381.75
2023-03-08T00:59:57.016Z,98375.63
2023-03-08T01:04:01.311Z,98392.16
2023-03-08T01:08:05.627Z,98386.06
2023-03-08T01:12:10.209Z,98381.69
2023-03-08T01:16:18.024Z,98396.50
2023-03-08T01:20:21.131Z,98391.25
2023-03-08T01:24:24.192Z,98387.75
2023-03-08T01:28:29.002Z,98406.94
2023-03-08T01:32:32.220Z,98416.53
2023-03-08T01:36:35.324Z,98404.31
2023-03-08T01:40:38.953Z,98394.72
2023-03-08T01:44:55.377Z,98400.84
2023-03-08T01:49:05.294Z,98411.28
2023-03-08T01:53:08.794Z,98424.31
2023-03-08T01:57:18.923Z,98415.63
2023-03-08T02:01:23.858Z,98410.41
2023-03-08T02:05:29.374Z,98412.16
2023-03-08T02:09:39.580Z,98408.66
2023-03-08T02:13:43.978Z,98415.63
2023-03-08T02:17:49.542Z,98411.25
2023-03-08T02:21:52.835Z,98415.63
2023-03-08T02:26:00.432Z,98418.25
2023-03-08T02:30:03.995Z,98424.31
2023-03-08T02:34:08.196Z,98426.06
2023-03-08T02:38:12.375Z,98434.78
2023-03-08T02:42:16.980Z,98436.50
2023-03-08T02:46:20.071Z,98434.78
2023-03-08T02:50:23.146Z,98441.72
2023-03-08T02:54:26.243Z,98438.25
2023-03-08T02:58:30.640Z,98438.25
2023-03-08T03:02:34.021Z,98452.19
2023-03-08T03:06:37.345Z,98458.31
2023-03-08T03:10:41.877Z,98448.72
2023-03-08T03:14:46.386Z,98450.47
2023-03-08T03:18:49.942Z,98431.31
2023-03-08T03:22:53.149Z,98447.00
2023-03-08T03:27:01.638Z,98453.97
2023-03-08T03:31:13.261Z,98441.75
2023-03-08T03:35:16.830Z,98440.88
2023-03-08T03:39:20.356Z,98459.16
2023-03-08T03:43:25.293Z,98453.94
2023-03-08T03:47:29.987Z,98467.00
2023-03-08T03:51:36.499Z,98467.00
2023-03-08T03:55:49.661Z,98465.25
2023-03-08T03:59:52.961Z,98471.38
2023-03-08T04:04:00.272Z,98467.88
2023-03-08T04:08:05.704Z,98465.25
2023-03-08T04:12:11.118Z,98453.94
2023-03-08T04:16:17.991Z,98469.63
2023-03-08T04:20:22.705Z,98456.56
2023-03-08T04:24:31.870Z,98461.78
2023-03-08T04:28:39.178Z,98488.78
2023-03-08T04:32:42.719Z,98478.34
2023-03-08T04:36:47.637Z,98491.41
2023-03-08T04:41:06.530Z,98504.47
2023-03-08T04:45:19.065Z,98506.22
2023-03-08T04:49:22.282Z,98514.06
2023-03-08T04:53:32.686Z,98515.81
2023-03-08T04:57:36.672Z,98523.66
2023-03-08T05:01:40.557Z,98523.69
2023-03-08T05:05:48.166Z,98528.03
2023-03-08T05:09:53.635Z,98547.22
2023-03-08T05:13:58.157Z,98540.22
2023-03-08T05:18:02.305Z,98535.00
2023-03-08T05:22:06.846Z,98543.72
2023-03-08T05:26:18.307Z,98546.34
2023-03-08T05:30:22.177Z,98542.84
2023-03-08T05:34:30.572Z,98543.72
2023-03-08T05:38:35.615Z,98546.34
2023-03-08T05:42:43.794Z,98543.72
2023-03-08T05:46:50.811Z,98541.97
2023-03-08T05:50:58.483Z,98544.59
2023-03-08T05:55:03.695Z,98545.47
2023-03-08T05:59:08.478Z,98554.19
2023-03-08T06:03:11.722Z,98541.09
2023-03-08T06:07:19.014Z,98541.97
2023-03-08T06:11:27.772Z,98542.00
2023-03-08T06:15:35.431Z,98551.56
2023-03-08T06:19:39.293Z,98562.00
2023-03-08T06:23:43.273Z,98565.50
2023-03-08T06:27:46.474Z,98569.84
2023-03-08T06:32:01.656Z,98575.94
2023-03-08T06:36:08.125Z,98574.19
2023-03-08T06:40:13.983Z,98581.16
2023-03-08T06:44:18.252Z,98592.47
2023-03-08T06:48:22.954Z,98602.94
2023-03-08T06:52:27.675Z,98597.66
2023-03-08T06:56:31.247Z,98594.16
2023-03-08T07:00:34.984Z,98601.09
2023-03-08T07:04:39.504Z,98601.06
2023-03-08T07:08:43.277Z,98585.31
2023-03-08T07:12:48.565Z,98595.72
2023-03-08T07:16:51.726Z,98598.34
2023-03-08T07:20:57.253Z,98598.31
2023-03-08T07:25:00.706Z,98598.28
2023-03-08T07:29:03.973Z,98592.13
2023-03-08T07:33:07.050Z,98583.38
2023-03-08T07:37:14.084Z,98580.69
2023-03-08T07:41:18.016Z,98577.16
2023-03-08T07:45:20.978Z,98567.53
2023-03-08T07:49:24.805Z,98559.56
2023-03-08T07:53:29.174Z,98547.28
2023-03-08T07:57:32.236Z,98548.94
2023-03-08T08:01:35.472Z,98554.94
2023-03-08T08:05:38.617Z,98548.69
2023-03-08T08:09:43.395Z,98540.72
2023-03-08T08:13:47.181Z,98528.31
2023-03-08T08:17:50.158Z,98521.25
2023-03-08T08:21:53.290Z,98512.38
2023-03-08T08:25:57.977Z,98514.94
2023-03-08T08:30:01.947Z,98509.69
2023-03-08T08:34:04.976Z,98505.19
2023-03-08T08:38:08.790Z,98493.81
2023-03-08T08:42:13.144Z,98498.97
2023-03-08T08:46:17.354Z,98509.34
2023-03-08T08:50:20.376Z,98515.28
2023-03-08T08:54:23.845Z,98524.72
2023-03-08T08:58:28.349Z,98526.25
2023-03-08T09:02:31.487Z,98516.50
2023-03-08T09:06:34.596Z,98528.69
2023-03-08T09:10:39.718Z,98539.13
2023-03-08T09:14:44.150Z,98528.50
2023-03-08T09:18:47.646Z,98535.38
2023-03-08T09:22:52.102Z,98516.06
2023-03-08T09:26:55.415Z,98513.38
2023-03-08T09:30:59.884Z,98511.53
2023-03-08T09:35:05.258Z,98509.69
2023-03-08T09:39:09.022Z,98508.78
2023-03-08T09:43:22.363Z,98506.03
2023-03-08T09:47:47.874Z,98509.41
2023-03-08T09:51:58.398Z,98498.63
2023-03-08T09:56:05.287Z,98493.16
2023-03-08T10:00:18.349Z,98486.81
2023-03-08T10:04:40.713Z,98474.38
2023-03-08T10:08:50.399Z,98471.59
2023-03-08T10:13:15.175Z,98469.66
2023-03-08T10:17:21.918Z,98458.94
2023-03-08T10:21:27.942Z,98454.59
2023-03-08T10:25:34.145Z,98444.84
2023-03-08T10:29:37.171Z,98443.03
2023-03-08T10:33:40.284Z,98446.53
2023-03-08T10:37:50.972Z,98444.78
2023-03-08T10:41:57.959Z,98446.63
2023-03-08T10:46:04.576Z,98441.34
2023-03-08T10:50:14.851Z,98444.84
2023-03-08T10:54:19.203Z,98423.78
2023-03-08T10:58:30.315Z,98416.78
2023-03-08T11:02:33.347Z,98392.13
2023-03-08T11:06:37.069Z,98379.69
2023-03-08T11:10:41.604Z,98358.56
2023-03-08T11:14:44.891Z,98355.81
2023-03-08T11:18:59.037Z,98332.84
2023-03-08T11:23:17.024Z,98316.84
2023-03-08T11:27:33.346Z,98283.97
2023-03-08T11:31:43.757Z,98266.97
2023-03-08T11:35:53.193Z,98276.44
2023-03-08T11:40:05.696Z,98259.75
2023-03-08T11:44:27.168Z,98246.53
2023-03-08T11:48:56.689Z,98232.41
2023-03-08T11:53:13.733Z,98211.31
2023-03-08T11:57:18.878Z,98213.22
2023-03-08T12:01:26.829Z,98193.03
2023-03-08T12:05:31.889Z,98177.16
2023-03-08T12:09:40.298Z,98173.63
2023-03-08T12:13:46.597Z,98155.31
2023-03-08T12:17:55.344Z,98143.38
2023-03-08T12:22:08.602Z,98146.28
2023-03-08T12:26:18.674Z,98157.69
2023-03-08T12:30:34.531Z,98154.31
2023-03-08T12:34:41.397Z,98157.25
2023-03-08T12:38:48.958Z,98152.84
2023-03-08T12:42:52.179Z,98151.13
2023-03-08T12:47:03.497Z,98127.63
2023-03-08T12:51:21.564Z,98134.75
2023-03-08T12:55:31.656Z,98137.44
2023-03-08T12:59:37.788Z,98129.63
2023-03-08T13:03:42.973Z,98130.59
2023-03-08T13:08:01.538Z,98149.19
2023-03-08T13:12:21.770Z,98146.72
2023-03-08T13:16:34.156Z,98155.84
2023-03-08T13:21:15.884Z,98156.81
2023-03-08T13:25:31.860Z,98138.38
2023-03-08T13:29:35.984Z,98116.41
2023-03-08T13:33:42.245Z,98112.00
2023-03-08T13:37:53.351Z,98099.78
2023-03-08T13:42:09.440Z,98091.00
2023-03-08T13:46:17.198Z,98086.63
2023-03-08T13:50:24.329Z,98078.59
2023-03-08T13:54:32.016Z,98066.16
2023-03-08T13:58:39.257Z,98071.19
2023-03-08T14:02:47.684Z,98053.91
2023-03-08T14:06:53.019Z,98063.09
2023-03-08T14:11:00.977Z,98068.03
2023-03-08T14:15:08.316Z,98044.88
2023-03-08T14:19:20.616Z,98045.72
2023-03-08T14:23:26.064Z,98044.59
2023-03-08T14:27:37.393Z,98049.66
2023-03-08T14:31:53.641Z,98030.84
2023-03-08T14:36:00.163Z,98017.56
2023-03-08T14:40:40.963Z,98001.63
2023-03-08T14:44:44.245Z,98001.78
2023-03-08T14:48:58.656Z,98002.81
2023-03-08T14:53:04.291Z,98006.31
2023-03-08T14:57:18.196Z,97980.81
2023-03-08T15:01:26.427Z,97972.75
2023-03-08T15:05:31.279Z,97964.69
2023-03-08T15:09:35.856Z,97957.47
2023-03-08T15:13:38.813Z,97955.38
2023-03-08T15:17:41.974Z,97947.28
2023-03-08T15:21:47.619Z,97938.47
2023-03-08T15:25:51.204Z,97933.13
2023-03-08T15:29:54.249Z,97946.31
2023-03-08T15:33:57.787Z,97945.34
2023-03-08T15:38:02.186Z,97946.19
2023-03-08T15:42:05.647Z,97939.22
2023-03-08T15:46:11.474Z,97938.28
2023-03-08T15:50:16.861Z,97946.84
2023-03-08T15:54:21.278Z,97956.66
2023-03-08T15:58:25.602Z,97962.75
2023-03-08T16:02:28.613Z,97965.38
2023-03-08T16:06:31.782Z,97964.47
2023-03-08T16:10:40.504Z,97965.28
2023-03-08T16:14:48.465Z,97978.34
2023-03-08T16:18:51.629Z,97972.06
2023-03-08T16:22:55.647Z,97972.06
2023-03-08T16:27:00.492Z,97972.06
2023-03-08T16:31:03.959Z,97978.28
2023-03-08T16:35:07.635Z,97975.66
2023-03-08T16:39:10.870Z,97973.81
2023-03-08T16:43:15.999Z,97960.72
2023-03-08T16:47:19.877Z,97956.50
2023-03-08T16:51:24.919Z,97947.66
2023-03-08T16:55:28.020Z,97935.31
2023-03-08T16:59:32.962Z,97931.88
2023-03-08T17:03:38.370Z,97923.19
2023-03-08T17:07:41.555Z,97913.81
2023-03-08T17:11:45.705Z,97907.00
2023-03-08T17:15:50.991Z,97900.97
2023-03-08T17:19:54.804Z,97916.97
2023-03-08T17:24:01.220Z,97905.75
2023-03-08T17:28:05.401Z,97905.16
2023-03-08T17:32:09.881Z,97903.63
2023-03-08T17:36:14.384Z,97936.44
2023-03-08T17:40:17.609Z,97927.94
2023-03-08T17:44:20.666Z,97940.53
2023-03-08T17:48:25.140Z,97946.78
2023-03-08T17:52:28.200Z,97965.28
2023-03-08T17:56:34.273Z,97948.75
2023-03-08T18:00:37.825Z,97943.72
2023-03-08T18:04:45.313Z,97948.41
2023-03-08T18:08:48.492Z,97952.94
2023-03-08T18:12:51.715Z,97954.81
2023-03-08T18:16:54.846Z,97949.50
2023-03-08T18:21:12.063Z,97947.69
2023-03-08T18:25:16.104Z,97949.38
2023-03-08T18:29:19.367Z,97939.69
2023-03-08T18:33:23.168Z,97939.69
2023-03-08T18:37:27.594Z,97913.38
2023-03-08T18:41:30.677Z,97922.25
2023-03-08T18:45:33.688Z,97920.53
2023-03-08T18:49:37.295Z,97892.56
2023-03-08T18:53:41.935Z,97892.78
2023-03-08T18:57:45.004Z,97891.91
2023-03-08T19:01:49.941Z,97888.44
2023-03-08T19:05:53.168Z,97904.13
2023-03-08T19:09:59.879Z,97885.63
2023-03-08T19:14:03.508Z,97880.41
2023-03-08T19:18:07.932Z,97883.97
2023-03-08T19:22:11.946Z,97882.19
2023-03-08T19:26:38.627Z,97883.09
2023-03-08T19:30:41.997Z,97879.66
2023-03-08T19:34:45.666Z,97861.16
2023-03-08T19:38:48.768Z,97859.38
2023-03-08T19:42:53.966Z,97849.63
2023-03-08T19:46:57.368Z,97865.28
2023-03-08T19:51:00.407Z,97872.13
2023-03-08T19:55:05.140Z,97865.72
2023-03-08T19:59:10.126Z,97863.09
2023-03-08T20:03:14.479Z,97867.41
2023-03-08T20:07:17.498Z,97866.44
2023-03-08T20:11:20.905Z,97868.09
2023-03-08T20:15:25.541Z,97871.53
2023-03-08T20:19:31.830Z,97866.16
2023-03-08T20:23:35.217Z,97859.81
2023-03-08T20:27:38.476Z,97871.91
2023-03-08T20:31:43.222Z,97881.44
2023-03-08T20:35:47.889Z,97888.44
2023-03-08T20:39:52.346Z,97890.22
2023-03-08T20:43:56.249Z,97895.59
2023-03-08T20:48:01.149Z,97854.44
2023-03-08T20:52:04.548Z,97892.41
2023-03-08T20:56:09.440Z,97878.41
2023-03-08T21:00:14.194Z,97878.53
2023-03-08T21:04:18.686Z,97876.78
2023-03-08T21:08:24.371Z,97877.66
2023-03-08T21:12:27.377Z,97886.44
2023-03-08T21:16:31.451Z,97892.56
2023-03-08T21:20:38.604Z,97885.59
2023-03-08T21:24:41.674Z,97876.78
2023-03-08T21:28:44.679Z,97868.16
2023-03-08T21:32:47.787Z,97859.56
2023-03-08T21:36:52.325Z,97877.28
2023-03-08T21:40:55.519Z,97872.09
2023-03-08T21:44:58.457Z,97890.56
2023-03-08T21:49:01.553Z,97883.66
2023-03-08T21:53:06.125Z,97896.06
2023-03-08T21:57:09.207Z,97885.47
2023-03-08T22:01:20.025Z,97873.16
2023-03-08T22:05:23.545Z,97881.91
2023-03-08T22:09:29.254Z,97882.84
2023-03-08T22:13:32.947Z,97889.81
2023-03-08T22:17:35.957Z,97852.25
2023-03-08T22:21:39.097Z,97852.41
2023-03-08T22:25:43.835Z,97841.06
2023-03-08T22:29:47.364Z,97844.59
2023-03-08T22:33:50.633Z,97841.88
2023-03-08T22:37:53.719Z,97844.44
2023-03-08T22:41:58.915Z,97854.00
2023-03-08T22:46:07.969Z,97853.13
2023-03-08T22:50:12.808Z,97872.47
2023-03-08T22:54:17.894Z,97870.84
2023-03-08T22:58:22.525Z,97869.13
2023-03-08T23:02:26.565Z,97877.06
2023-03-08T23:06:31.386Z,97891.25
2023-03-08T23:10:34.509Z,97890.56
2023-03-08T23:14:38.897Z,97879.25
2023-03-08T23:18:42.245Z,97871.41
2023-03-08T23:22:45.286Z,97862.59
2023-03-08T23:26:48.458Z,97874.84
2023-03-08T23:30:52.808Z,97866.09
2023-03-08T23:34:55.953Z,97861.63
2023-03-08T23:39:01.792Z,97860.69
2023-03-08T23:43:05.170Z,97854.47
2023-03-08T23:47:09.774Z,97851.78
2023-03-08T23:51:17.100Z,97842.94
2023-03-08T23:55:20.169Z,97853.34
2023-03-08T23:59:24.500Z,97849.78
